Time;durP1;ratioP1;P1;durP2;ratioP2;P2;SDS_P1;SDS_P2;PMS_P1;PMS_P2;Temp;Humidity;BMP_temperature;BMP_pressure;BME280_temperature;BME280_humidity;BME280_pressure;Samples;Min_cycle;Max_cycle;Signal;HPM_P1;HPM_P2
2022/07/30 00:01:47;;;;;;;193.32;186.02;;;12.20;99.90;;;;;;4891346;29;20426;-80
2022/07/30 00:04:14;;;;;;;222.95;214.52;;;12.10;99.90;;;;;;4880712;29;20467;-80
2022/07/30 00:06:42;;;;;;;182.97;175.83;;;12.10;99.90;;;;;;4887690;29;20793;-80
2022/07/30 00:09:10;;;;;;;204.52;196.73;;;12.10;99.90;;;;;;4891036;29;20445;-79
2022/07/30 00:11:38;;;;;;;191.30;183.90;;;12.00;99.90;;;;;;4887728;29;20428;-82
2022/07/30 00:14:06;;;;;;;191.48;184.05;;;12.00;99.90;;;;;;4885280;29;20403;-82
2022/07/30 00:16:33;;;;;;;175.00;168.32;;;12.00;99.90;;;;;;4895205;29;20815;-82
2022/07/30 00:19:02;;;;;;;202.70;194.75;;;12.00;99.90;;;;;;4882611;29;20395;-81
2022/07/30 00:21:29;;;;;;;202.13;194.45;;;12.00;99.90;;;;;;4883779;29;20424;-82
2022/07/30 00:24:07;;;;;;;231.60;222.90;;;11.90;99.90;;;;;;4885707;29;20428;-82
2022/07/30 00:26:35;;;;;;;211.43;203.32;;;11.90;99.90;;;;;;4885656;29;20442;-82
2022/07/30 00:29:03;;;;;;;159.60;153.47;;;11.90;99.90;;;;;;4883939;29;20420;-81
2022/07/30 00:31:31;;;;;;;190.57;183.23;;;11.90;99.90;;;;;;4900255;29;20910;-81
2022/07/30 00:33:59;;;;;;;179.60;172.70;;;11.90;99.90;;;;;;4893545;29;20898;-81
2022/07/30 00:36:27;;;;;;;161.32;154.95;;;11.80;99.90;;;;;;4878917;29;20418;-80
2022/07/30 00:38:56;;;;;;;200.47;192.70;;;11.80;99.90;;;;;;4883911;29;20782;-81
2022/07/30 00:41:24;;;;;;;199.02;191.13;;;11.80;99.90;;;;;;4886679;29;20446;-81
2022/07/30 00:43:52;;;;;;;225.10;216.20;;;11.80;99.90;;;;;;4887988;29;20704;-82
2022/07/30 00:46:20;;;;;;;222.98;214.15;;;11.80;99.90;;;;;;4906432;29;20920;-81
2022/07/30 00:48:47;;;;;;;270.77;260.40;;;11.80;99.90;;;;;;4903288;29;20402;-82
2022/07/30 00:51:15;;;;;;;249.15;239.65;;;11.70;99.90;;;;;;4899410;29;20425;-81
2022/07/30 00:53:43;;;;;;;193.73;186.13;;;11.70;99.90;;;;;;4894267;29;20423;-82
2022/07/30 00:56:10;;;;;;;241.57;232.38;;;11.70;99.90;;;;;;4888461;29;20777;-83
2022/07/30 00:58:38;;;;;;;255.88;245.93;;;11.70;99.90;;;;;;4902269;29;20437;-80
2022/07/30 01:01:05;;;;;;;267.95;257.67;;;11.70;99.90;;;;;;4879735;29;20449;-81
2022/07/30 01:03:33;;;;;;;198.23;190.68;;;11.70;99.90;;;;;;4890466;29;20497;-82
2022/07/30 01:06:01;;;;;;;204.35;196.75;;;11.70;99.90;;;;;;4881608;29;20776;-82
2022/07/30 01:08:28;;;;;;;208.60;200.45;;;11.70;99.90;;;;;;4894061;29;20407;-82
2022/07/30 01:10:56;;;;;;;264.13;253.85;;;11.70;99.90;;;;;;4882282;29;20423;-81
2022/07/30 01:13:24;;;;;;;182.15;175.05;;;11.70;99.90;;;;;;4905142;29;20421;-81
2022/07/30 01:15:52;;;;;;;182.07;175.02;;;11.60;99.90;;;;;;4893996;29;20419;-82
2022/07/30 01:18:23;;;;;;;206.65;198.65;;;11.60;99.90;;;;;;4887889;29;20883;-82
2022/07/30 01:21:08;;;;;;;216.63;208.13;;;11.70;99.90;;;;;;4882870;29;20450;-81
2022/07/30 01:23:40;;;;;;;268.13;257.50;;;11.70;99.90;;;;;;4902674;29;20522;-83
2022/07/30 01:26:14;;;;;;;221.90;213.20;;;11.70;99.90;;;;;;4885478;29;20403;-82
2022/07/30 01:28:52;;;;;;;243.87;234.40;;;11.60;99.90;;;;;;4902521;29;20421;-82
2022/07/30 01:31:24;;;;;;;202.63;194.57;;;11.60;99.90;;;;;;4889014;29;20473;-82
2022/07/30 01:33:53;;;;;;;208.25;200.25;;;11.60;99.90;;;;;;4898740;29;20473;-82
2022/07/30 01:36:22;;;;;;;192.65;185.07;;;11.50;99.90;;;;;;4902213;29;20430;-82
2022/07/30 01:38:51;;;;;;;181.07;174.03;;;11.60;99.90;;;;;;4888323;29;20902;-82
2022/07/30 01:41:19;;;;;;;212.13;203.80;;;11.50;99.90;;;;;;4885660;29;20401;-82
2022/07/30 01:43:47;;;;;;;277.77;267.03;;;11.50;99.90;;;;;;4902109;29;20399;-81
2022/07/30 01:46:16;;;;;;;225.35;217.20;;;11.50;99.90;;;;;;4903744;29;20403;-82
2022/07/30 01:48:47;;;;;;;218.90;210.55;;;11.60;99.90;;;;;;4904154;29;20455;-82
2022/07/30 01:51:17;;;;;;;264.27;254.20;;;11.60;99.90;;;;;;4895640;29;20417;-83
2022/07/30 01:53:49;;;;;;;208.90;200.68;;;11.60;99.90;;;;;;4896014;29;20937;-81
2022/07/30 01:56:20;;;;;;;259.13;249.57;;;11.50;99.90;;;;;;4884699;29;20488;-82
2022/07/30 01:58:54;;;;;;;257.92;247.75;;;11.50;99.90;;;;;;4902008;29;20411;-81
2022/07/30 02:01:30;;;;;;;240.05;230.80;;;11.50;99.90;;;;;;4901710;29;20942;-82
2022/07/30 02:04:01;;;;;;;210.27;202.18;;;11.50;99.90;;;;;;4887195;29;20489;-81
2022/07/30 02:06:40;;;;;;;185.07;178.00;;;11.50;99.90;;;;;;4907241;29;20474;-81
2022/07/30 02:09:14;;;;;;;259.77;249.73;;;11.50;99.90;;;;;;4899547;29;20930;-82
2022/07/30 02:14:46;;;;;;;196.37;188.87;;;11.40;99.90;;;;;;4892879;29;20461;-83
2022/07/30 02:17:23;;;;;;;207.88;199.68;;;11.40;99.90;;;;;;4902044;29;20453;-81
2022/07/30 02:19:59;;;;;;;267.85;257.63;;;11.50;99.90;;;;;;4878345;29;20421;-81
2022/07/30 02:22:36;;;;;;;261.08;251.13;;;11.40;99.90;;;;;;4885421;29;20397;-81
2022/07/30 02:25:06;;;;;;;171.38;164.68;;;11.40;99.90;;;;;;4900742;29;20517;-81
2022/07/30 02:27:39;;;;;;;203.40;195.57;;;11.40;99.90;;;;;;4888905;29;20883;-82
2022/07/30 02:30:08;;;;;;;235.07;226.20;;;11.40;99.90;;;;;;4883796;29;20414;-81
2022/07/30 02:32:39;;;;;;;199.60;191.75;;;11.40;99.90;;;;;;4893995;29;20477;-81
2022/07/30 02:35:16;;;;;;;189.90;182.25;;;11.40;99.90;;;;;;4903765;29;20928;-81
2022/07/30 02:37:47;;;;;;;189.43;182.10;;;11.40;99.90;;;;;;4899231;29;20484;-81
2022/07/30 02:40:17;;;;;;;154.15;148.10;;;11.40;99.90;;;;;;4892603;29;20447;-81
2022/07/30 02:42:49;;;;;;;236.75;228.02;;;11.30;99.90;;;;;;4891914;29;20423;-82
2022/07/30 02:45:22;;;;;;;227.20;218.27;;;11.30;99.90;;;;;;4895709;29;20493;-82
2022/07/30 02:48:06;;;;;;;262.88;252.95;;;11.40;99.90;;;;;;4897675;29;20423;-81
2022/07/30 02:50:38;;;;;;;255.95;246.07;;;11.30;99.90;;;;;;4883903;29;20502;-81
2022/07/30 02:53:09;;;;;;;267.17;256.85;;;11.30;99.90;;;;;;4903032;29;20472;-81
2022/07/30 02:55:41;;;;;;;251.48;241.93;;;11.40;99.90;;;;;;4891656;29;20450;-81
2022/07/30 02:58:14;;;;;;;171.20;164.80;;;11.30;99.90;;;;;;4886506;29;20434;-82
2022/07/30 03:00:43;;;;;;;183.35;176.32;;;11.30;99.90;;;;;;4881369;29;20426;-81
2022/07/30 03:03:13;;;;;;;169.70;163.02;;;11.30;99.90;;;;;;4893493;29;20472;-82
2022/07/30 03:05:41;;;;;;;272.38;261.85;;;11.40;99.90;;;;;;4900575;29;20438;-81
2022/07/30 03:08:09;;;;;;;218.15;209.50;;;11.40;99.90;;;;;;4902474;29;20406;-81
2022/07/30 03:10:38;;;;;;;212.60;204.52;;;11.40;99.90;;;;;;4880145;29;20752;-81
2022/07/30 03:13:07;;;;;;;237.25;228.38;;;11.40;99.90;;;;;;4887149;29;20413;-81
2022/07/30 03:15:40;;;;;;;170.90;164.13;;;11.30;99.90;;;;;;4886568;29;20494;-81
2022/07/30 03:18:11;;;;;;;232.90;223.80;;;11.30;99.90;;;;;;4901079;29;20942;-81
2022/07/30 03:20:44;;;;;;;201.70;193.93;;;11.30;99.90;;;;;;4894248;29;20414;-82
2022/07/30 03:23:18;;;;;;;247.55;238.00;;;11.30;99.90;;;;;;4898392;29;20421;-82
2022/07/30 03:25:59;;;;;;;231.80;222.98;;;11.30;99.90;;;;;;4902617;29;20469;-82
2022/07/30 03:28:31;;;;;;;268.48;258.40;;;11.30;99.90;;;;;;4892056;29;20502;-81
2022/07/30 03:31:00;;;;;;;237.40;228.30;;;11.30;99.90;;;;;;4892844;29;20421;-81
2022/07/30 03:33:30;;;;;;;222.48;213.93;;;11.30;99.90;;;;;;4902648;29;20425;-81
2022/07/30 03:36:07;;;;;;;225.68;217.38;;;11.40;99.90;;;;;;4894416;29;20417;-81
2022/07/30 03:38:41;;;;;;;238.65;229.85;;;11.40;99.90;;;;;;4886886;29;20488;-81
2022/07/30 03:41:10;;;;;;;245.23;236.02;;;11.40;99.90;;;;;;4895704;29;20493;-81
2022/07/30 03:43:40;;;;;;;235.32;226.63;;;11.50;99.90;;;;;;4880652;29;20839;-81
2022/07/30 03:46:09;;;;;;;240.03;230.97;;;11.50;99.90;;;;;;4892286;29;20431;-83
2022/07/30 03:48:41;;;;;;;225.98;217.40;;;11.50;99.90;;;;;;4894736;29;20912;-83
2022/07/30 03:51:09;;;;;;;245.47;236.23;;;11.50;99.90;;;;;;4889915;29;20494;-82
2022/07/30 03:53:40;;;;;;;230.95;222.18;;;11.50;99.90;;;;;;4900009;29;20430;-82
2022/07/30 03:56:27;;;;;;;245.38;236.23;;;11.50;99.90;;;;;;4883707;29;20424;-82
2022/07/30 03:59:20;;;;;;;256.60;246.80;;;11.50;99.90;;;;;;4888098;29;20421;-81
2022/07/30 04:01:48;;;;;;;230.33;221.53;;;11.60;99.90;;;;;;4887359;29;20869;-82
2022/07/30 04:04:30;;;;;;;235.07;226.32;;;11.60;99.90;;;;;;4913511;29;20418;-82
2022/07/30 04:06:57;;;;;;;250.65;241.45;;;11.60;99.90;;;;;;4895308;29;20419;-82
2022/07/30 04:09:25;;;;;;;247.45;238.40;;;11.70;99.90;;;;;;4879896;29;20410;-82
2022/07/30 04:11:53;;;;;;;233.45;224.38;;;11.70;99.90;;;;;;4895754;29;20837;-81
2022/07/30 04:14:26;;;;;;;234.70;225.93;;;11.70;99.90;;;;;;4894013;29;20407;-83
2022/07/30 04:17:02;;;;;;;246.23;237.30;;;11.70;99.90;;;;;;4885741;29;20476;-81
2022/07/30 04:19:37;;;;;;;233.63;225.00;;;11.70;99.90;;;;;;4894781;29;20489;-82
2022/07/30 04:22:06;;;;;;;259.98;250.52;;;11.70;99.90;;;;;;4889866;29;20436;-83
2022/07/30 04:24:37;;;;;;;246.70;237.50;;;11.70;99.90;;;;;;4905502;29;20416;-84
2022/07/30 04:27:05;;;;;;;211.50;203.55;;;11.80;99.90;;;;;;4902610;29;20905;-82
2022/07/30 04:29:34;;;;;;;230.67;222.17;;;11.80;99.90;;;;;;4895723;29;20950;-81
2022/07/30 04:32:02;;;;;;;239.90;231.05;;;11.80;99.90;;;;;;4905249;29;20405;-82
2022/07/30 04:34:32;;;;;;;254.33;245.07;;;11.80;99.90;;;;;;4892045;29;20440;-82
2022/07/30 04:37:01;;;;;;;224.00;215.80;;;11.80;99.90;;;;;;4892998;29;20422;-82
2022/07/30 04:39:30;;;;;;;233.43;224.73;;;11.90;99.90;;;;;;4888897;29;20495;-82
2022/07/30 04:41:57;;;;;;;266.75;256.98;;;11.90;99.90;;;;;;4903254;29;20788;-82
2022/07/30 04:44:31;;;;;;;200.18;192.95;;;11.90;99.90;;;;;;4900381;29;20427;-82
2022/07/30 04:47:24;;;;;;;239.05;230.25;;;11.90;99.90;;;;;;4901141;29;20418;-82
2022/07/30 04:50:12;;;;;;;271.50;261.40;;;12.00;99.90;;;;;;4893682;29;21009;-82
2022/07/30 04:52:42;;;;;;;291.10;280.13;;;12.00;99.90;;;;;;4902813;29;20430;-82
2022/07/30 04:55:12;;;;;;;255.65;246.50;;;12.10;99.90;;;;;;4894078;29;20876;-82
2022/07/30 04:57:41;;;;;;;239.20;230.32;;;12.10;99.90;;;;;;4903874;29;20946;-83
2022/07/30 05:00:10;;;;;;;243.40;233.95;;;12.10;99.90;;;;;;4900350;29;20505;-82
2022/07/30 05:02:41;;;;;;;271.73;261.17;;;12.20;99.90;;;;;;4902829;29;20906;-82
2022/07/30 05:05:10;;;;;;;277.35;266.20;;;12.20;99.90;;;;;;4885311;29;20406;-82
2022/07/30 05:07:38;;;;;;;284.50;273.85;;;12.20;99.90;;;;;;4889894;29;20424;-82
2022/07/30 05:10:09;;;;;;;246.43;236.55;;;12.30;99.90;;;;;;4903161;29;20424;-82
2022/07/30 05:12:38;;;;;;;281.00;270.30;;;12.40;99.90;;;;;;4905520;29;20425;-82
2022/07/30 05:15:07;;;;;;;258.75;248.15;;;12.40;99.90;;;;;;4893841;29;20407;-82
2022/07/30 05:17:36;;;;;;;241.25;232.10;;;12.50;99.90;;;;;;4904478;29;20421;-82
2022/07/30 05:20:08;;;;;;;246.05;236.73;;;12.50;99.90;;;;;;4879518;29;20455;-82
2022/07/30 05:22:58;;;;;;;312.35;300.50;;;12.60;99.90;;;;;;4890418;29;20415;-82
2022/07/30 05:25:26;;;;;;;237.52;228.55;;;12.60;99.90;;;;;;4901920;29;20990;-82
2022/07/30 05:28:01;;;;;;;248.38;238.50;;;12.70;99.90;;;;;;4898473;29;20514;-82
2022/07/30 05:30:29;;;;;;;238.93;229.77;;;12.70;99.90;;;;;;4886980;29;20415;-80
2022/07/30 05:32:59;;;;;;;213.13;204.95;;;12.80;99.90;;;;;;4902487;29;20500;-82
2022/07/30 05:35:30;;;;;;;206.45;198.50;;;12.90;99.90;;;;;;4902352;29;20493;-83
2022/07/30 05:37:59;;;;;;;236.07;227.25;;;12.90;99.90;;;;;;4900193;29;20426;-83
2022/07/30 05:40:31;;;;;;;262.85;252.10;;;13.00;99.90;;;;;;4901572;29;20425;-79
2022/07/30 05:43:17;;;;;;;201.23;193.23;;;13.00;99.90;;;;;;4888538;29;20421;-83
2022/07/30 05:45:45;;;;;;;251.30;241.45;;;13.00;99.90;;;;;;4893569;29;20470;-84
2022/07/30 05:48:12;;;;;;;205.93;197.45;;;13.10;99.90;;;;;;4903743;29;20454;-83
2022/07/30 05:50:40;;;;;;;244.00;234.50;;;13.20;99.90;;;;;;4901944;29;20801;-80
2022/07/30 05:53:08;;;;;;;300.90;289.13;;;13.20;99.90;;;;;;4893556;29;20418;-81
2022/07/30 05:56:01;;;;;;;254.55;244.88;;;13.20;99.90;;;;;;4888707;29;20417;-83
2022/07/30 05:58:47;;;;;;;238.68;229.20;;;13.40;99.90;;;;;;4887477;29;20398;-83
2022/07/30 06:01:24;;;;;;;248.75;238.65;;;13.40;99.90;;;;;;4882081;29;20403;-82
2022/07/30 06:03:53;;;;;;;212.75;203.73;;;13.40;99.90;;;;;;4898291;29;20520;-83
2022/07/30 06:06:39;;;;;;;256.70;247.07;;;13.50;99.90;;;;;;4884022;29;20433;-80
2022/07/30 06:09:07;;;;;;;246.68;236.77;;;13.50;99.90;;;;;;4903275;29;20415;-83
2022/07/30 06:11:34;;;;;;;308.33;295.47;;;13.50;99.90;;;;;;4903605;29;20413;-82
2022/07/30 06:14:02;;;;;;;282.98;271.80;;;13.60;99.90;;;;;;4901236;29;20411;-83
2022/07/30 06:16:30;;;;;;;243.80;234.52;;;13.60;99.90;;;;;;4891215;29;20474;-83
2022/07/30 06:18:57;;;;;;;260.85;250.75;;;13.60;99.90;;;;;;4899995;29;20770;-82
2022/07/30 06:21:41;;;;;;;291.40;280.17;;;13.60;99.90;;;;;;4892573;29;20429;-83
2022/07/30 06:24:29;;;;;;;240.55;230.68;;;13.70;99.90;;;;;;4888330;29;20409;-82
2022/07/30 06:27:04;;;;;;;246.30;236.35;;;13.80;99.90;;;;;;4902233;29;20461;-83
2022/07/30 06:29:31;;;;;;;248.23;238.87;;;13.90;99.90;;;;;;4889711;29;20500;-82
2022/07/30 06:32:00;;;;;;;229.20;220.50;;;14.00;99.90;;;;;;4892981;29;20405;-82
2022/07/30 06:34:28;;;;;;;229.88;220.98;;;14.00;99.90;;;;;;4888485;29;20418;-81
2022/07/30 06:36:56;;;;;;;257.17;247.45;;;14.00;99.90;;;;;;4900754;29;20774;-81
2022/07/30 06:39:24;;;;;;;168.60;161.43;;;14.10;99.90;;;;;;4901672;29;20516;-82
2022/07/30 06:42:18;;;;;;;173.40;166.43;;;14.20;99.90;;;;;;4890237;29;20405;-82
2022/07/30 06:45:19;;;;;;;195.25;187.35;;;14.30;99.90;;;;;;4897374;29;20472;-81
2022/07/30 06:48:05;;;;;;;244.50;235.23;;;14.20;99.90;;;;;;4900056;29;20469;-83
2022/07/30 06:50:36;;;;;;;158.70;152.48;;;14.30;99.90;;;;;;4900921;29;20423;-82
2022/07/30 06:53:03;;;;;;;201.10;193.60;;;14.20;99.90;;;;;;4882442;29;20454;-83
2022/07/30 06:55:51;;;;;;;193.02;185.77;;;14.20;99.90;;;;;;4885938;29;20417;-82
2022/07/30 06:58:28;;;;;;;263.50;252.93;;;14.30;99.90;;;;;;4901463;29;20792;-82
2022/07/30 07:01:28;;;;;;;293.98;281.02;;;14.30;99.90;;;;;;4886248;29;20397;-81
2022/07/30 07:03:57;;;;;;;244.97;236.00;;;14.30;99.90;;;;;;4902272;29;20410;-82
2022/07/30 07:06:24;;;;;;;184.77;177.73;;;14.30;99.90;;;;;;4894434;29;20413;-81
2022/07/30 07:08:52;;;;;;;196.73;188.95;;;14.30;99.90;;;;;;4902672;29;20424;-82
2022/07/30 07:11:27;;;;;;;249.77;240.23;;;14.30;99.90;;;;;;4888236;29;20906;-82
2022/07/30 07:13:56;;;;;;;209.98;201.93;;;14.30;99.90;;;;;;4900574;29;20431;-82
2022/07/30 07:16:33;;;;;;;197.63;189.55;;;14.40;99.90;;;;;;4900989;29;20410;-81
2022/07/30 07:19:28;;;;;;;281.13;269.45;;;14.60;99.90;;;;;;4881941;29;20426;-82
2022/07/30 07:22:15;;;;;;;210.43;202.27;;;14.80;99.90;;;;;;4904133;29;20405;-84
2022/07/30 07:24:44;;;;;;;221.52;212.68;;;14.80;99.90;;;;;;4903203;29;20421;-82
2022/07/30 07:27:16;;;;;;;211.47;203.83;;;14.90;99.90;;;;;;4887821;29;20425;-81
2022/07/30 07:29:47;;;;;;;213.60;205.23;;;14.80;99.90;;;;;;4895076;29;20419;-83
2022/07/30 07:32:35;;;;;;;230.77;221.45;;;14.90;99.90;;;;;;4909790;29;20454;-82
2022/07/30 07:35:04;;;;;;;193.18;185.20;;;15.10;99.90;;;;;;4891946;29;20819;-82
2022/07/30 07:37:34;;;;;;;199.05;191.32;;;15.30;99.90;;;;;;4899883;29;20783;-82
2022/07/30 07:40:04;;;;;;;196.95;188.48;;;15.30;99.90;;;;;;4904051;29;20835;-83
2022/07/30 07:42:36;;;;;;;225.60;216.70;;;15.30;99.90;;;;;;4891158;29;20915;-83
2022/07/30 07:45:06;;;;;;;207.90;199.93;;;15.40;99.90;;;;;;4906340;29;20512;-82
2022/07/30 07:47:49;;;;;;;220.02;211.90;;;15.70;99.90;;;;;;4901724;29;20426;-82
2022/07/30 07:50:51;;;;;;;207.90;199.32;;;15.80;99.90;;;;;;4894748;29;21007;-82
2022/07/30 07:53:27;;;;;;;183.02;175.80;;;15.60;99.90;;;;;;4900383;29;20508;-83
2022/07/30 07:55:55;;;;;;;198.38;190.23;;;15.40;99.90;;;;;;4899636;29;20760;-82
2022/07/30 07:58:24;;;;;;;204.13;196.18;;;15.30;99.90;;;;;;4898101;29;20810;-82
2022/07/30 08:00:57;;;;;;;230.73;221.70;;;15.40;99.90;;;;;;4908600;29;20420;-82
2022/07/30 08:03:45;;;;;;;184.47;177.07;;;15.40;99.90;;;;;;4896984;29;20912;-82
2022/07/30 08:06:35;;;;;;;201.82;194.02;;;15.60;99.90;;;;;;4882468;29;20414;-83
2022/07/30 08:09:29;;;;;;;166.13;159.20;;;15.60;99.90;;;;;;4902927;29;20492;-82
2022/07/30 08:12:36;;;;;;;188.65;181.32;;;15.90;99.90;;;;;;4897087;29;20407;-82
2022/07/30 08:15:42;;;;;;;199.32;191.90;;;15.70;99.90;;;;;;4899214;29;20931;-83
2022/07/30 08:18:38;;;;;;;165.48;157.95;;;15.60;99.90;;;;;;4892924;29;20418;-83
2022/07/30 08:21:18;;;;;;;202.55;194.68;;;15.90;99.90;;;;;;4903965;29;20422;-84
2022/07/30 08:23:46;;;;;;;198.47;190.10;;;15.90;99.90;;;;;;4897224;29;20530;-83
2022/07/30 08:26:14;;;;;;;206.88;198.88;;;16.00;99.90;;;;;;4898759;29;20444;-83
2022/07/30 08:28:42;;;;;;;248.13;238.90;;;16.20;99.90;;;;;;4893265;29;20432;-82
2022/07/30 08:31:10;;;;;;;190.35;182.20;;;16.10;99.90;;;;;;4887207;29;20394;-82
2022/07/30 08:33:38;;;;;;;206.15;198.43;;;16.00;99.90;;;;;;4906367;29;20969;-83
2022/07/30 08:36:07;;;;;;;247.32;238.15;;;15.90;99.90;;;;;;4913286;29;20559;-83
2022/07/30 08:38:37;;;;;;;244.27;234.90;;;15.80;99.90;;;;;;4914533;29;20423;-83
2022/07/30 08:41:07;;;;;;;180.50;173.27;;;15.90;99.90;;;;;;4888281;29;20400;-83
2022/07/30 08:43:36;;;;;;;144.07;138.00;;;16.20;99.90;;;;;;4890764;29;20395;-84
2022/07/30 08:46:09;;;;;;;183.60;175.25;;;16.40;99.90;;;;;;4895512;29;20417;-82
2022/07/30 08:48:53;;;;;;;179.98;172.63;;;16.50;99.90;;;;;;4905117;29;20417;-82
2022/07/30 08:51:22;;;;;;;199.43;191.85;;;16.60;99.90;;;;;;4891046;29;20424;-83
2022/07/30 08:54:15;;;;;;;198.63;190.63;;;16.40;99.90;;;;;;4897345;29;20429;-82
2022/07/30 08:56:44;;;;;;;379.92;362.30;;;16.20;99.90;;;;;;4895255;29;20425;-83
2022/07/30 08:59:12;;;;;;;497.38;474.75;;;16.20;99.90;;;;;;4905125;29;20411;-83
2022/07/30 09:01:41;;;;;;;373.55;356.05;;;16.10;99.90;;;;;;4886418;29;20427;-84
2022/07/30 09:04:10;;;;;;;432.00;412.43;;;16.00;99.90;;;;;;4885738;29;20405;-84
2022/07/30 09:06:39;;;;;;;524.78;500.33;;;16.00;99.90;;;;;;4905336;29;20421;-82
2022/07/30 09:09:10;;;;;;;327.30;313.55;;;15.90;99.90;;;;;;4895191;29;20475;-82
2022/07/30 09:11:40;;;;;;;422.48;403.08;;;15.90;99.90;;;;;;4887540;29;20420;-81
2022/07/30 09:14:14;;;;;;;502.20;477.88;;;16.00;99.90;;;;;;4901193;29;20470;-81
2022/07/30 09:16:43;;;;;;;248.45;236.52;;;16.20;99.90;;;;;;4883355;29;20428;-82
2022/07/30 09:19:17;;;;;;;206.93;197.90;;;16.50;99.90;;;;;;4892714;29;20411;-83
2022/07/30 09:22:00;;;;;;;240.23;229.40;;;16.60;99.90;;;;;;4869222;29;20454;-82
2022/07/30 09:24:45;;;;;;;338.25;324.38;;;16.70;99.90;;;;;;4889027;29;20431;-82
2022/07/30 09:27:47;;;;;;;238.88;228.35;;;16.80;99.90;;;;;;4887192;29;20532;-82
2022/07/30 09:30:48;;;;;;;291.37;279.57;;;17.00;99.90;;;;;;4895577;29;20440;-81
2022/07/30 09:33:43;;;;;;;289.50;275.75;;;17.10;99.90;;;;;;4889803;29;20855;-81
2022/07/30 09:36:32;;;;;;;265.50;254.48;;;17.30;99.90;;;;;;4889469;29;21427;-81
2022/07/30 09:39:34;;;;;;;227.70;218.37;;;17.30;99.90;;;;;;4894083;29;20436;-81
2022/07/30 09:42:26;;;;;;;205.25;195.57;;;17.10;99.90;;;;;;4896865;29;20414;-82
2022/07/30 09:45:11;;;;;;;226.50;216.02;;;16.90;99.90;;;;;;4898077;29;20442;-81
2022/07/30 09:47:47;;;;;;;214.60;205.93;;;16.80;99.90;;;;;;4904189;29;20773;-81
2022/07/30 09:50:18;;;;;;;215.07;206.35;;;16.60;99.90;;;;;;4880880;29;20409;-80
2022/07/30 09:53:09;;;;;;;248.57;237.47;;;16.60;99.90;;;;;;4866562;29;20490;-80
2022/07/30 09:55:41;;;;;;;266.33;255.48;;;16.70;99.90;;;;;;4879784;29;20424;-80
2022/07/30 09:58:11;;;;;;;222.00;212.90;;;16.90;99.90;;;;;;4874317;29;20421;-82
2022/07/30 10:00:58;;;;;;;174.85;167.48;;;17.10;99.90;;;;;;4869127;29;20929;-81
2022/07/30 10:03:49;;;;;;;242.40;231.73;;;17.00;99.90;;;;;;4870528;29;20393;-80
2022/07/30 10:06:34;;;;;;;261.55;251.00;;;16.90;99.90;;;;;;4861297;29;20416;-81
2022/07/30 10:09:27;;;;;;;248.00;238.07;;;16.80;99.90;;;;;;4885662;29;20418;-81
2022/07/30 10:11:57;;;;;;;185.30;177.32;;;16.80;99.90;;;;;;4868331;29;20399;-81
2022/07/30 10:14:33;;;;;;;237.82;226.73;;;17.00;99.90;;;;;;4884546;29;20432;-81
2022/07/30 10:17:09;;;;;;;221.38;211.63;;;17.50;99.90;;;;;;4876887;29;20425;-81
2022/07/30 10:19:40;;;;;;;224.50;214.95;;;17.70;99.90;;;;;;4875371;29;20412;-82
2022/07/30 10:22:43;;;;;;;235.52;225.70;;;17.70;99.90;;;;;;4887599;29;20392;-81
2022/07/30 10:25:22;;;;;;;272.43;261.60;;;17.40;99.90;;;;;;4869052;29;20401;-82
2022/07/30 10:28:30;;;;;;;181.10;173.57;;;17.30;99.90;;;;;;4877014;29;20463;-81
2022/07/30 10:31:06;;;;;;;262.60;251.68;;;17.40;99.90;;;;;;4869317;29;20475;-80
2022/07/30 10:33:54;;;;;;;227.55;218.23;;;17.60;99.90;;;;;;4864147;29;20413;-80
2022/07/30 10:36:24;;;;;;;225.05;215.65;;;17.90;99.90;;;;;;4868243;29;20421;-79
2022/07/30 10:38:53;;;;;;;210.32;200.57;;;18.00;99.90;;;;;;4868303;29;20500;-80
2022/07/30 10:41:49;;;;;;;202.45;193.55;;;18.20;99.90;;;;;;4868118;29;20884;-80
2022/07/30 10:44:26;;;;;;;216.15;207.07;;;18.20;99.90;;;;;;4867664;29;20487;-80
2022/07/30 10:47:02;;;;;;;206.97;198.00;;;18.00;99.90;;;;;;4865732;29;20443;-80
2022/07/30 10:49:34;;;;;;;203.57;194.77;;;17.80;99.90;;;;;;4868593;29;20492;-80
2022/07/30 10:52:09;;;;;;;192.77;184.45;;;17.80;99.90;;;;;;4881282;29;20420;-80
2022/07/30 10:54:41;;;;;;;217.32;208.20;;;17.90;99.90;;;;;;4886464;29;20843;-80
2022/07/30 10:57:13;;;;;;;207.27;198.63;;;18.10;99.90;;;;;;4886693;29;20485;-80
2022/07/30 11:00:01;;;;;;;248.85;237.30;;;18.40;99.90;;;;;;4886678;29;20409;-82
2022/07/30 11:02:33;;;;;;;196.82;187.63;;;18.60;99.90;;;;;;4905067;29;20505;-81
2022/07/30 11:05:17;;;;;;;134.85;128.75;;;18.80;99.90;;;;;;4904786;29;20413;-81
2022/07/30 11:08:43;;;;;;;203.90;194.70;;;18.80;99.90;;;;;;4899585;29;20407;-81
2022/07/30 11:11:21;;;;;;;198.20;188.40;;;18.90;99.90;;;;;;4886037;29;20465;-82
2022/07/30 11:14:08;;;;;;;147.40;141.25;;;19.00;99.90;;;;;;4889785;29;20405;-82
2022/07/30 11:16:39;;;;;;;244.73;234.70;;;18.90;99.90;;;;;;4896913;29;20430;-82
2022/07/30 11:19:16;;;;;;;292.90;280.67;;;18.70;99.90;;;;;;4897043;29;20929;-82
2022/07/30 11:22:26;;;;;;;186.95;179.25;;;18.50;99.90;;;;;;4902551;29;20849;-81
2022/07/30 11:24:56;;;;;;;243.77;232.20;;;18.50;99.90;;;;;;4889167;29;20789;-82
2022/07/30 11:27:45;;;;;;;172.07;164.88;;;19.00;99.90;;;;;;4903242;29;20401;-82
2022/07/30 11:30:14;;;;;;;137.27;131.53;;;19.10;99.90;;;;;;4890734;29;20417;-82
2022/07/30 11:33:03;;;;;;;176.30;168.32;;;19.30;99.90;;;;;;4900464;29;20450;-82
2022/07/30 11:35:33;;;;;;;154.98;147.85;;;19.40;99.90;;;;;;4894230;29;20424;-81
2022/07/30 11:38:06;;;;;;;236.63;226.20;;;19.70;99.90;;;;;;4881695;29;20421;-82
2022/07/30 11:40:36;;;;;;;182.02;174.45;;;19.80;99.90;;;;;;4893936;29;20429;-82
2022/07/30 11:43:18;;;;;;;164.03;157.27;;;19.80;99.90;;;;;;4891730;29;20421;-82
2022/07/30 11:46:04;;;;;;;262.42;251.00;;;20.00;99.90;;;;;;4902300;29;20490;-82
2022/07/30 11:48:33;;;;;;;196.40;188.67;;;20.00;99.90;;;;;;4900371;29;20457;-83
2022/07/30 11:51:02;;;;;;;169.65;162.40;;;20.00;99.90;;;;;;4892524;29;20430;-82
2022/07/30 11:53:30;;;;;;;148.48;141.95;;;20.00;99.90;;;;;;4900375;29;20918;-82
2022/07/30 11:56:02;;;;;;;124.22;118.72;;;19.90;99.90;;;;;;4892832;29;20425;-82
2022/07/30 11:58:36;;;;;;;119.97;114.53;;;20.00;99.90;;;;;;4885400;29;20414;-81
2022/07/30 12:01:13;;;;;;;162.63;155.60;;;20.00;99.90;;;;;;4892541;29;20420;-82
2022/07/30 12:03:43;;;;;;;167.90;160.10;;;20.30;99.90;;;;;;4878743;29;20505;-83
2022/07/30 12:06:16;;;;;;;125.72;119.57;;;20.40;99.90;;;;;;4900782;29;20461;-80
2022/07/30 12:08:47;;;;;;;168.73;161.77;;;20.60;99.90;;;;;;4885568;29;20417;-80
2022/07/30 12:11:15;;;;;;;144.60;138.52;;;20.60;99.90;;;;;;4897470;29;20409;-80
2022/07/30 12:13:58;;;;;;;203.65;195.52;;;20.50;99.90;;;;;;4880874;29;20866;-80
2022/07/30 12:16:27;;;;;;;100.15;95.85;;;20.40;99.90;;;;;;4888577;29;20932;-82
2022/07/30 12:18:59;;;;;;;224.80;215.20;;;20.30;99.90;;;;;;4891370;29;20882;-81
2022/07/30 12:21:27;;;;;;;218.45;209.90;;;20.10;99.90;;;;;;4884383;29;20773;-79
2022/07/30 12:24:01;;;;;;;141.73;135.85;;;20.10;99.90;;;;;;4900025;29;20448;-83
2022/07/30 12:26:33;;;;;;;114.47;109.68;;;20.10;99.90;;;;;;4893461;29;20609;-82
2022/07/30 12:29:14;;;;;;;120.07;115.03;;;20.30;99.90;;;;;;4904282;29;20467;-81
2022/07/30 12:31:44;;;;;;;135.87;130.33;;;20.60;99.90;;;;;;4887174;29;20772;-82
2022/07/30 12:34:22;;;;;;;107.65;103.07;;;20.60;99.90;;;;;;4890003;29;20411;-81
2022/07/30 12:36:50;;;;;;;131.20;125.40;;;20.70;99.90;;;;;;4889458;29;20761;-80
2022/07/30 12:39:23;;;;;;;122.97;117.25;;;20.90;99.90;;;;;;4908990;29;20531;-82
2022/07/30 12:41:54;;;;;;;98.53;94.32;;;21.00;99.90;;;;;;4905133;29;20908;-81
2022/07/30 12:44:37;;;;;;;146.48;140.30;;;20.90;99.90;;;;;;4894480;29;20446;-79
2022/07/30 12:47:19;;;;;;;193.13;185.13;;;20.60;99.90;;;;;;4902561;29;20467;-79
2022/07/30 12:49:47;;;;;;;144.25;138.32;;;20.40;99.90;;;;;;4880645;29;20894;-81